Indianapolis, Indiana
Traffic Map
Current Weather Conditions
Indianapolis, Indiana
Clear Haze
Clear
19°
Feels Like: 9°
Wind Chill: Ceiling: Unl
Heat Index: 19° Visibility: 4mi
Dew Point: 16° Wind: 8mph
Humidity: 88% Direction: 230° (SW)
Pressure: 30.19in Gusts: 0mph
Raw Report DataKIND 110954Z 23007KT 4SM BR CLR M07/M09 A3019 RMK AO2 SLP234 I1000 T10721089
Traffic Incident Summary
Active as of:
Severity:
Category:
InformationThere was an issue retrieving the traffic information for this location. Please try a different location or try again shortly.
Advertisements